sensor_id;sensor_type;location;lat;lon;timestamp;temperature;humidity
78455;SHT31;67751;51.986;5.696;2023-02-11T09:39:26;9.5;74.7
78455;SHT31;67751;51.986;5.696;2023-02-11T09:44:45;9.6;74.6
78455;SHT31;67751;51.986;5.696;2023-02-11T09:47:25;9.6;74.5
78455;SHT31;67751;51.986;5.696;2023-02-11T09:50:01;9.6;74.6
78455;SHT31;67751;51.986;5.696;2023-02-11T09:52:41;9.7;74.5
78455;SHT31;67751;51.986;5.696;2023-02-11T09:55:18;9.7;74.4
78455;SHT31;67751;51.986;5.696;2023-02-11T09:57:49;9.7;74.4
78455;SHT31;67751;51.986;5.696;2023-02-11T10:00:23;9.8;74.3
78455;SHT31;67751;51.986;5.696;2023-02-11T10:03:08;9.8;74.1
78455;SHT31;67751;51.986;5.696;2023-02-11T10:05:58;9.8;74.1
78455;SHT31;67751;51.986;5.696;2023-02-11T10:08:40;9.9;73.9
78455;SHT31;67751;51.986;5.696;2023-02-11T10:11:20;9.9;74.0
78455;SHT31;67751;51.986;5.696;2023-02-11T10:14:03;9.9;73.9
78455;SHT31;67751;51.986;5.696;2023-02-11T10:16:49;9.9;73.9
78455;SHT31;67751;51.986;5.696;2023-02-11T10:19:36;10.0;73.7
78455;SHT31;67751;51.986;5.696;2023-02-11T10:22:15;10.0;73.7
78455;SHT31;67751;51.986;5.696;2023-02-11T10:24:53;10.0;73.8
78455;SHT31;67751;51.986;5.696;2023-02-11T10:27:28;10.0;73.8
78455;SHT31;67751;51.986;5.696;2023-02-11T10:30:04;10.0;73.9
78455;SHT31;67751;51.986;5.696;2023-02-11T10:32:43;10.1;73.9
78455;SHT31;67751;51.986;5.696;2023-02-11T10:35:18;10.1;73.8
78455;SHT31;67751;51.986;5.696;2023-02-11T10:37:49;10.1;73.9
78455;SHT31;67751;51.986;5.696;2023-02-11T10:40:21;10.1;74.0
78455;SHT31;67751;51.986;5.696;2023-02-11T10:42:53;10.2;74.2
78455;SHT31;67751;51.986;5.696;2023-02-11T10:45:29;10.2;73.8
78455;SHT31;67751;51.986;5.696;2023-02-11T10:48:02;10.2;73.9
78455;SHT31;67751;51.986;5.696;2023-02-11T10:50:34;10.3;74.1
78455;SHT31;67751;51.986;5.696;2023-02-11T10:53:16;10.3;73.7
78455;SHT31;67751;51.986;5.696;2023-02-11T10:55:52;10.3;73.8
78455;SHT31;67751;51.986;5.696;2023-02-11T10:58:28;10.4;74.1
78455;SHT31;67751;51.986;5.696;2023-02-11T11:01:00;10.4;74.1
78455;SHT31;67751;51.986;5.696;2023-02-11T11:03:35;10.4;73.8
78455;SHT31;67751;51.986;5.696;2023-02-11T11:06:08;10.5;73.5
78455;SHT31;67751;51.986;5.696;2023-02-11T11:08:42;10.5;73.7
78455;SHT31;67751;51.986;5.696;2023-02-11T11:11:14;10.5;73.9
78455;SHT31;67751;51.986;5.696;2023-02-11T11:13:56;10.5;73.6
78455;SHT31;67751;51.986;5.696;2023-02-11T11:16:28;10.6;73.5
78455;SHT31;67751;51.986;5.696;2023-02-11T11:19:21;10.6;73.6
78455;SHT31;67751;51.986;5.696;2023-02-11T11:21:54;10.6;73.2
78455;SHT31;67751;51.986;5.696;2023-02-11T11:24:28;10.7;73.2
78455;SHT31;67751;51.986;5.696;2023-02-11T11:27:03;10.7;72.7
78455;SHT31;67751;51.986;5.696;2023-02-11T11:29:36;10.7;72.4
78455;SHT31;67751;51.986;5.696;2023-02-11T11:32:14;10.7;72.1
78455;SHT31;67751;51.986;5.696;2023-02-11T11:34:51;10.7;72.8
78455;SHT31;67751;51.986;5.696;2023-02-11T11:37:26;10.7;73.0
78455;SHT31;67751;51.986;5.696;2023-02-11T11:39:59;10.8;73.1
78455;SHT31;67751;51.986;5.696;2023-02-11T11:42:32;10.8;73.2
78455;SHT31;67751;51.986;5.696;2023-02-11T11:45:17;10.8;72.9
78455;SHT31;67751;51.986;5.696;2023-02-11T11:47:44;10.8;72.8
78455;SHT31;67751;51.986;5.696;2023-02-11T11:50:24;10.9;72.1
78455;SHT31;67751;51.986;5.696;2023-02-11T11:53:00;10.9;72.1
78455;SHT31;67751;51.986;5.696;2023-02-11T11:55:35;10.9;72.0
78455;SHT31;67751;51.986;5.696;2023-02-11T11:58:10;11.0;72.3
78455;SHT31;67751;51.986;5.696;2023-02-11T12:00:52;11.0;72.2
78455;SHT31;67751;51.986;5.696;2023-02-11T12:06:43;11.1;71.8
78455;SHT31;67751;51.986;5.696;2023-02-11T12:09:28;11.1;71.7
78455;SHT31;67751;51.986;5.696;2023-02-11T12:12:19;11.2;71.7
78455;SHT31;67751;51.986;5.696;2023-02-11T12:15:05;11.2;71.5
78455;SHT31;67751;51.986;5.696;2023-02-11T12:17:50;11.2;71.6
78455;SHT31;67751;51.986;5.696;2023-02-11T12:20:28;11.3;71.4
78455;SHT31;67751;51.986;5.696;2023-02-11T12:23:34;11.3;71.4
78455;SHT31;67751;51.986;5.696;2023-02-11T12:26:15;11.3;71.2
78455;SHT31;67751;51.986;5.696;2023-02-11T12:29:00;11.4;71.8
78455;SHT31;67751;51.986;5.696;2023-02-11T12:31:50;11.4;71.2
78455;SHT31;67751;51.986;5.696;2023-02-11T12:34:36;11.4;70.9
78455;SHT31;67751;51.986;5.696;2023-02-11T12:37:19;11.4;70.4
78455;SHT31;67751;51.986;5.696;2023-02-11T12:39:59;11.5;71.2
78455;SHT31;67751;51.986;5.696;2023-02-11T12:42:51;11.5;70.7
78455;SHT31;67751;51.986;5.696;2023-02-11T12:46:04;11.5;70.2
78455;SHT31;67751;51.986;5.696;2023-02-11T12:53:10;11.6;70.6
78455;SHT31;67751;51.986;5.696;2023-02-11T12:55:47;11.6;70.2
78455;SHT31;67751;51.986;5.696;2023-02-11T12:58:22;11.6;70.1
78455;SHT31;67751;51.986;5.696;2023-02-11T13:00:58;11.6;70.2
78455;SHT31;67751;51.986;5.696;2023-02-11T13:03:38;11.7;70.2
78455;SHT31;67751;51.986;5.696;2023-02-11T13:06:12;11.7;70.0
78455;SHT31;67751;51.986;5.696;2023-02-11T13:08:46;11.7;69.7
78455;SHT31;67751;51.986;5.696;2023-02-11T13:11:25;11.7;69.9
78455;SHT31;67751;51.986;5.696;2023-02-11T13:14:00;11.8;68.9
78455;SHT31;67751;51.986;5.696;2023-02-11T13:16:36;11.8;68.7
78455;SHT31;67751;51.986;5.696;2023-02-11T13:19:17;11.8;69.3
78455;SHT31;67751;51.986;5.696;2023-02-11T13:22:01;11.8;69.3
78455;SHT31;67751;51.986;5.696;2023-02-11T13:24:42;11.8;69.4
78455;SHT31;67751;51.986;5.696;2023-02-11T13:27:23;11.8;69.5
78455;SHT31;67751;51.986;5.696;2023-02-11T13:30:31;11.8;69.6
78455;SHT31;67751;51.986;5.696;2023-02-11T13:33:34;11.8;69.9
78455;SHT31;67751;51.986;5.696;2023-02-11T13:36:14;11.8;70.1
78455;SHT31;67751;51.986;5.696;2023-02-11T13:38:54;11.8;69.8
78455;SHT31;67751;51.986;5.696;2023-02-11T13:41:27;11.8;69.5
78455;SHT31;67751;51.986;5.696;2023-02-11T13:44:00;11.8;69.7
78455;SHT31;67751;51.986;5.696;2023-02-11T13:46:59;11.8;70.1
78455;SHT31;67751;51.986;5.696;2023-02-11T13:49:34;11.8;69.0
78455;SHT31;67751;51.986;5.696;2023-02-11T13:52:22;11.8;68.9
78455;SHT31;67751;51.986;5.696;2023-02-11T13:54:55;11.8;69.5
78455;SHT31;67751;51.986;5.696;2023-02-11T13:57:30;11.8;69.2
78455;SHT31;67751;51.986;5.696;2023-02-11T14:00:02;11.9;69.3
78455;SHT31;67751;51.986;5.696;2023-02-11T14:02:35;11.9;69.6
78455;SHT31;67751;51.986;5.696;2023-02-11T14:05:24;11.9;69.3
78455;SHT31;67751;51.986;5.696;2023-02-11T14:08:17;11.9;69.0
78455;SHT31;67751;51.986;5.696;2023-02-11T14:11:05;11.9;69.4
78455;SHT31;67751;51.986;5.696;2023-02-11T14:14:21;11.9;69.0
78455;SHT31;67751;51.986;5.696;2023-02-11T14:19:08;12.0;68.8
78455;SHT31;67751;51.986;5.696;2023-02-11T14:21:41;12.0;68.4
78455;SHT31;67751;51.986;5.696;2023-02-11T14:24:50;12.0;68.7
78455;SHT31;67751;51.986;5.696;2023-02-11T14:27:27;12.1;67.8
78455;SHT31;67751;51.986;5.696;2023-02-11T14:30:13;12.1;67.9
78455;SHT31;67751;51.986;5.696;2023-02-11T14:33:19;12.1;68.2
78455;SHT31;67751;51.986;5.696;2023-02-11T14:36:04;12.1;68.3
78455;SHT31;67751;51.986;5.696;2023-02-11T14:38:54;12.1;68.5
78455;SHT31;67751;51.986;5.696;2023-02-11T14:41:25;12.1;68.3
78455;SHT31;67751;51.986;5.696;2023-02-11T14:43:58;12.1;68.4
78455;SHT31;67751;51.986;5.696;2023-02-11T14:46:29;12.1;68.5
78455;SHT31;67751;51.986;5.696;2023-02-11T14:49:02;12.1;68.3
78455;SHT31;67751;51.986;5.696;2023-02-11T14:51:37;12.1;68.3
78455;SHT31;67751;51.986;5.696;2023-02-11T14:54:13;12.1;68.4
78455;SHT31;67751;51.986;5.696;2023-02-11T14:56:44;12.1;68.2
78455;SHT31;67751;51.986;5.696;2023-02-11T14:59:18;12.1;68.2
78455;SHT31;67751;51.986;5.696;2023-02-11T15:01:49;12.1;67.9
78455;SHT31;67751;51.986;5.696;2023-02-11T15:04:26;12.1;67.4
78455;SHT31;67751;51.986;5.696;2023-02-11T15:07:02;12.1;67.6
78455;SHT31;67751;51.986;5.696;2023-02-11T15:09:38;12.1;67.8
78455;SHT31;67751;51.986;5.696;2023-02-11T15:12:16;12.1;67.6
78455;SHT31;67751;51.986;5.696;2023-02-11T15:14:49;12.1;67.6
78455;SHT31;67751;51.986;5.696;2023-02-11T15:17:22;12.1;67.1
78455;SHT31;67751;51.986;5.696;2023-02-11T15:19:55;12.1;67.2
78455;SHT31;67751;51.986;5.696;2023-02-11T15:22:29;12.1;67.0
78455;SHT31;67751;51.986;5.696;2023-02-11T15:25:09;12.1;67.1
78455;SHT31;67751;51.986;5.696;2023-02-11T15:27:43;12.1;67.3
78455;SHT31;67751;51.986;5.696;2023-02-11T15:30:26;12.1;67.2
78455;SHT31;67751;51.986;5.696;2023-02-11T15:32:57;12.1;67.1
78455;SHT31;67751;51.986;5.696;2023-02-11T15:35:29;12.1;67.0
78455;SHT31;67751;51.986;5.696;2023-02-11T15:38:02;12.1;67.1
78455;SHT31;67751;51.986;5.696;2023-02-11T15:40:33;12.1;66.7
78455;SHT31;67751;51.986;5.696;2023-02-11T15:43:06;12.1;67.0
78455;SHT31;67751;51.986;5.696;2023-02-11T15:45:38;12.1;67.3
78455;SHT31;67751;51.986;5.696;2023-02-11T15:48:12;12.1;67.0
78455;SHT31;67751;51.986;5.696;2023-02-11T15:50:51;12.1;66.5
78455;SHT31;67751;51.986;5.696;2023-02-11T15:53:26;12.1;67.1
78455;SHT31;67751;51.986;5.696;2023-02-11T15:56:06;12.1;67.2
78455;SHT31;67751;51.986;5.696;2023-02-11T15:58:40;12.1;67.1
78455;SHT31;67751;51.986;5.696;2023-02-11T16:01:11;12.1;67.0
78455;SHT31;67751;51.986;5.696;2023-02-11T16:03:42;12.0;67.1
78455;SHT31;67751;51.986;5.696;2023-02-11T16:06:17;12.0;67.0
78455;SHT31;67751;51.986;5.696;2023-02-11T16:08:58;12.0;67.2
78455;SHT31;67751;51.986;5.696;2023-02-11T16:11:31;12.0;67.0
78455;SHT31;67751;51.986;5.696;2023-02-11T16:14:15;12.0;67.0
78455;SHT31;67751;51.986;5.696;2023-02-11T16:16:36;12.0;67.1
78455;SHT31;67751;51.986;5.696;2023-02-11T16:19:16;12.0;66.9
78455;SHT31;67751;51.986;5.696;2023-02-11T16:21:47;11.9;67.1
78455;SHT31;67751;51.986;5.696;2023-02-11T16:24:19;11.9;67.0
78455;SHT31;67751;51.986;5.696;2023-02-11T16:26:52;11.9;67.2
78455;SHT31;67751;51.986;5.696;2023-02-11T16:29:26;11.9;67.4
78455;SHT31;67751;51.986;5.696;2023-02-11T16:32:07;11.9;67.0
78455;SHT31;67751;51.986;5.696;2023-02-11T16:34:37;11.8;67.2
78455;SHT31;67751;51.986;5.696;2023-02-11T16:37:06;11.8;67.1
78455;SHT31;67751;51.986;5.696;2023-02-11T16:39:38;11.8;67.0
78455;SHT31;67751;51.986;5.696;2023-02-11T16:42:11;11.8;67.3
78455;SHT31;67751;51.986;5.696;2023-02-11T16:44:40;11.7;67.4
78455;SHT31;67751;51.986;5.696;2023-02-11T16:47:18;11.7;67.3
78455;SHT31;67751;51.986;5.696;2023-02-11T16:49:51;11.7;67.0
78455;SHT31;67751;51.986;5.696;2023-02-11T16:52:23;11.6;67.3
78455;SHT31;67751;51.986;5.696;2023-02-11T16:54:53;11.6;67.4
78455;SHT31;67751;51.986;5.696;2023-02-11T16:57:24;11.6;67.4
78455;SHT31;67751;51.986;5.696;2023-02-11T16:59:54;11.5;67.5
78455;SHT31;67751;51.986;5.696;2023-02-11T17:02:27;11.5;67.3
78455;SHT31;67751;51.986;5.696;2023-02-11T17:05:00;11.5;67.6
78455;SHT31;67751;51.986;5.696;2023-02-11T17:07:31;11.4;67.7
78455;SHT31;67751;51.986;5.696;2023-02-11T17:10:00;11.4;67.5
78455;SHT31;67751;51.986;5.696;2023-02-11T17:12:30;11.4;67.6
78455;SHT31;67751;51.986;5.696;2023-02-11T17:14:59;11.4;67.6
78455;SHT31;67751;51.986;5.696;2023-02-11T17:17:29;11.3;67.6
78455;SHT31;67751;51.986;5.696;2023-02-11T17:19:59;11.3;67.4
78455;SHT31;67751;51.986;5.696;2023-02-11T17:22:29;11.3;67.2
78455;SHT31;67751;51.986;5.696;2023-02-11T17:24:58;11.2;67.4
78455;SHT31;67751;51.986;5.696;2023-02-11T17:27:28;11.2;67.3
78455;SHT31;67751;51.986;5.696;2023-02-11T17:29:57;11.2;67.6
78455;SHT31;67751;51.986;5.696;2023-02-11T17:32:29;11.1;67.6
78455;SHT31;67751;51.986;5.696;2023-02-11T17:34:59;11.1;67.6
78455;SHT31;67751;51.986;5.696;2023-02-11T17:37:29;11.1;67.7
78455;SHT31;67751;51.986;5.696;2023-02-11T17:39:58;11.0;67.8
78455;SHT31;67751;51.986;5.696;2023-02-11T17:42:29;11.0;67.8
78455;SHT31;67751;51.986;5.696;2023-02-11T17:44:59;11.0;67.7
78455;SHT31;67751;51.986;5.696;2023-02-11T17:47:29;11.0;67.8
78455;SHT31;67751;51.986;5.696;2023-02-11T17:49:59;10.9;67.7
78455;SHT31;67751;51.986;5.696;2023-02-11T17:52:29;10.9;67.8
78455;SHT31;67751;51.986;5.696;2023-02-11T17:54:59;10.9;68.1
78455;SHT31;67751;51.986;5.696;2023-02-11T17:57:28;10.9;68.0
78455;SHT31;67751;51.986;5.696;2023-02-11T17:59:58;10.9;67.9
78455;SHT31;67751;51.986;5.696;2023-02-11T18:02:28;10.9;68.0
78455;SHT31;67751;51.986;5.696;2023-02-11T18:04:57;10.8;68.2
78455;SHT31;67751;51.986;5.696;2023-02-11T18:07:27;10.8;68.2
78455;SHT31;67751;51.986;5.696;2023-02-11T18:09:56;10.8;68.3
78455;SHT31;67751;51.986;5.696;2023-02-11T18:12:26;10.8;68.3
78455;SHT31;67751;51.986;5.696;2023-02-11T18:14:55;10.8;68.1
78455;SHT31;67751;51.986;5.696;2023-02-11T18:17:25;10.8;68.1
78455;SHT31;67751;51.986;5.696;2023-02-11T18:19:56;10.8;68.1
78455;SHT31;67751;51.986;5.696;2023-02-11T18:22:26;10.7;68.3
78455;SHT31;67751;51.986;5.696;2023-02-11T18:25:00;10.7;68.3
78455;SHT31;67751;51.986;5.696;2023-02-11T18:27:31;10.7;68.3
78455;SHT31;67751;51.986;5.696;2023-02-11T18:30:03;10.7;68.0
78455;SHT31;67751;51.986;5.696;2023-02-11T18:32:33;10.7;67.8
78455;SHT31;67751;51.986;5.696;2023-02-11T18:35:02;10.7;67.9
78455;SHT31;67751;51.986;5.696;2023-02-11T18:37:35;10.6;67.7
78455;SHT31;67751;51.986;5.696;2023-02-11T18:40:05;10.6;67.8
78455;SHT31;67751;51.986;5.696;2023-02-11T18:42:35;10.6;67.6
78455;SHT31;67751;51.986;5.696;2023-02-11T18:45:06;10.6;67.7
78455;SHT31;67751;51.986;5.696;2023-02-11T18:47:38;10.6;67.8
78455;SHT31;67751;51.986;5.696;2023-02-11T18:50:09;10.5;67.7
78455;SHT31;67751;51.986;5.696;2023-02-11T18:52:40;10.5;67.9
78455;SHT31;67751;51.986;5.696;2023-02-11T18:55:10;10.5;68.0
78455;SHT31;67751;51.986;5.696;2023-02-11T18:57:40;10.5;68.2
78455;SHT31;67751;51.986;5.696;2023-02-11T19:00:10;10.4;68.4
78455;SHT31;67751;51.986;5.696;2023-02-11T19:02:40;10.4;68.3
78455;SHT31;67751;51.986;5.696;2023-02-11T19:05:12;10.4;68.5
78455;SHT31;67751;51.986;5.696;2023-02-11T19:07:43;10.4;68.6
78455;SHT31;67751;51.986;5.696;2023-02-11T19:10:13;10.4;68.6
78455;SHT31;67751;51.986;5.696;2023-02-11T19:12:42;10.4;68.9
78455;SHT31;67751;51.986;5.696;2023-02-11T19:15:12;10.4;69.0
78455;SHT31;67751;51.986;5.696;2023-02-11T19:17:42;10.4;69.0
78455;SHT31;67751;51.986;5.696;2023-02-11T19:20:12;10.4;68.9
78455;SHT31;67751;51.986;5.696;2023-02-11T19:22:42;10.4;69.1
78455;SHT31;67751;51.986;5.696;2023-02-11T19:25:12;10.4;68.9
78455;SHT31;67751;51.986;5.696;2023-02-11T19:27:42;10.4;68.9
78455;SHT31;67751;51.986;5.696;2023-02-11T19:30:12;10.4;69.0
78455;SHT31;67751;51.986;5.696;2023-02-11T19:32:41;10.4;69.0
78455;SHT31;67751;51.986;5.696;2023-02-11T19:35:11;10.4;69.2
78455;SHT31;67751;51.986;5.696;2023-02-11T19:37:40;10.4;69.1
78455;SHT31;67751;51.986;5.696;2023-02-11T19:40:13;10.4;69.3
78455;SHT31;67751;51.986;5.696;2023-02-11T19:42:43;10.4;69.2
78455;SHT31;67751;51.986;5.696;2023-02-11T19:45:13;10.4;69.2
78455;SHT31;67751;51.986;5.696;2023-02-11T19:47:42;10.4;69.4
78455;SHT31;67751;51.986;5.696;2023-02-11T19:50:12;10.4;69.4
78455;SHT31;67751;51.986;5.696;2023-02-11T19:52:42;10.4;69.4
78455;SHT31;67751;51.986;5.696;2023-02-11T19:55:11;10.4;69.4
78455;SHT31;67751;51.986;5.696;2023-02-11T19:57:41;10.4;69.5
78455;SHT31;67751;51.986;5.696;2023-02-11T20:00:11;10.4;69.6
78455;SHT31;67751;51.986;5.696;2023-02-11T20:02:41;10.4;69.4
78455;SHT31;67751;51.986;5.696;2023-02-11T20:05:12;10.5;69.5
78455;SHT31;67751;51.986;5.696;2023-02-11T20:07:42;10.5;69.3
78455;SHT31;67751;51.986;5.696;2023-02-11T20:12:43;10.5;69.4
78455;SHT31;67751;51.986;5.696;2023-02-11T20:15:13;10.5;69.2
78455;SHT31;67751;51.986;5.696;2023-02-11T20:17:42;10.5;69.3
78455;SHT31;67751;51.986;5.696;2023-02-11T20:20:14;10.5;69.3
78455;SHT31;67751;51.986;5.696;2023-02-11T20:22:44;10.5;69.2
78455;SHT31;67751;51.986;5.696;2023-02-11T20:25:14;10.5;69.3
78455;SHT31;67751;51.986;5.696;2023-02-11T20:27:44;10.5;69.3
78455;SHT31;67751;51.986;5.696;2023-02-11T20:30:13;10.5;69.5
78455;SHT31;67751;51.986;5.696;2023-02-11T20:32:43;10.5;69.6
78455;SHT31;67751;51.986;5.696;2023-02-11T20:35:13;10.5;69.5
78455;SHT31;67751;51.986;5.696;2023-02-11T20:37:43;10.5;69.5
78455;SHT31;67751;51.986;5.696;2023-02-11T20:40:13;10.5;69.5
78455;SHT31;67751;51.986;5.696;2023-02-11T20:42:42;10.5;69.6
78455;SHT31;67751;51.986;5.696;2023-02-11T20:45:14;10.5;69.7
78455;SHT31;67751;51.986;5.696;2023-02-11T20:47:43;10.5;69.8
78455;SHT31;67751;51.986;5.696;2023-02-11T20:50:13;10.5;69.7
78455;SHT31;67751;51.986;5.696;2023-02-11T20:52:42;10.5;69.8
78455;SHT31;67751;51.986;5.696;2023-02-11T20:55:14;10.5;69.7
78455;SHT31;67751;51.986;5.696;2023-02-11T20:57:43;10.5;69.8
78455;SHT31;67751;51.986;5.696;2023-02-11T21:00:13;10.5;69.8
78455;SHT31;67751;51.986;5.696;2023-02-11T21:02:43;10.5;69.9
78455;SHT31;67751;51.986;5.696;2023-02-11T21:05:13;10.5;69.9
78455;SHT31;67751;51.986;5.696;2023-02-11T21:07:42;10.5;69.9
78455;SHT31;67751;51.986;5.696;2023-02-11T21:10:12;10.5;69.9
78455;SHT31;67751;51.986;5.696;2023-02-11T21:12:42;10.5;69.9
78455;SHT31;67751;51.986;5.696;2023-02-11T21:15:11;10.5;69.9
78455;SHT31;67751;51.986;5.696;2023-02-11T21:17:41;10.5;69.8
78455;SHT31;67751;51.986;5.696;2023-02-11T21:20:11;10.6;69.8
78455;SHT31;67751;51.986;5.696;2023-02-11T21:22:41;10.6;69.7
78455;SHT31;67751;51.986;5.696;2023-02-11T21:25:10;10.6;69.9
78455;SHT31;67751;51.986;5.696;2023-02-11T21:27:42;10.6;69.8
78455;SHT31;67751;51.986;5.696;2023-02-11T21:30:12;10.6;69.9
78455;SHT31;67751;51.986;5.696;2023-02-11T21:32:41;10.6;69.9
78455;SHT31;67751;51.986;5.696;2023-02-11T21:35:11;10.6;69.9
78455;SHT31;67751;51.986;5.696;2023-02-11T21:37:41;10.6;69.9
78455;SHT31;67751;51.986;5.696;2023-02-11T21:40:11;10.6;69.9
78455;SHT31;67751;51.986;5.696;2023-02-11T21:42:41;10.6;69.9
78455;SHT31;67751;51.986;5.696;2023-02-11T21:45:10;10.6;69.6
78455;SHT31;67751;51.986;5.696;2023-02-11T21:47:42;10.6;69.7
78455;SHT31;67751;51.986;5.696;2023-02-11T21:50:12;10.6;69.7
78455;SHT31;67751;51.986;5.696;2023-02-11T21:52:41;10.6;69.9
78455;SHT31;67751;51.986;5.696;2023-02-11T21:55:13;10.6;69.7
78455;SHT31;67751;51.986;5.696;2023-02-11T21:57:42;10.6;69.5
78455;SHT31;67751;51.986;5.696;2023-02-11T22:00:13;10.6;69.5
78455;SHT31;67751;51.986;5.696;2023-02-11T22:02:43;10.6;69.5
78455;SHT31;67751;51.986;5.696;2023-02-11T22:05:12;10.6;69.7
78455;SHT31;67751;51.986;5.696;2023-02-11T22:07:42;10.6;69.6
78455;SHT31;67751;51.986;5.696;2023-02-11T22:10:14;10.6;69.7
78455;SHT31;67751;51.986;5.696;2023-02-11T22:12:44;10.6;69.8
78455;SHT31;67751;51.986;5.696;2023-02-11T22:15:14;10.6;69.7
78455;SHT31;67751;51.986;5.696;2023-02-11T22:17:45;10.6;69.9
78455;SHT31;67751;51.986;5.696;2023-02-11T22:20:17;10.6;69.7
78455;SHT31;67751;51.986;5.696;2023-02-11T22:22:46;10.6;69.7
78455;SHT31;67751;51.986;5.696;2023-02-11T22:25:17;10.6;69.7
78455;SHT31;67751;51.986;5.696;2023-02-11T22:27:46;10.6;69.8
78455;SHT31;67751;51.986;5.696;2023-02-11T22:30:18;10.6;69.8
78455;SHT31;67751;51.986;5.696;2023-02-11T22:32:48;10.6;69.8
78455;SHT31;67751;51.986;5.696;2023-02-11T22:35:17;10.6;69.8
78455;SHT31;67751;51.986;5.696;2023-02-11T22:37:47;10.6;69.8
78455;SHT31;67751;51.986;5.696;2023-02-11T22:42:52;10.6;69.9
78455;SHT31;67751;51.986;5.696;2023-02-11T22:45:22;10.6;69.8
78455;SHT31;67751;51.986;5.696;2023-02-11T22:47:51;10.6;69.8
78455;SHT31;67751;51.986;5.696;2023-02-11T22:50:21;10.6;69.8
78455;SHT31;67751;51.986;5.696;2023-02-11T22:52:50;10.6;69.7
78455;SHT31;67751;51.986;5.696;2023-02-11T22:55:20;10.6;69.8
78455;SHT31;67751;51.986;5.696;2023-02-11T22:57:49;10.6;69.7
78455;SHT31;67751;51.986;5.696;2023-02-11T23:00:20;10.6;69.8
78455;SHT31;67751;51.986;5.696;2023-02-11T23:02:52;10.6;69.9
78455;SHT31;67751;51.986;5.696;2023-02-11T23:05:21;10.6;69.7
78455;SHT31;67751;51.986;5.696;2023-02-11T23:07:51;10.6;69.9
78455;SHT31;67751;51.986;5.696;2023-02-11T23:10:21;10.6;69.9
78455;SHT31;67751;51.986;5.696;2023-02-11T23:12:50;10.6;69.8
78455;SHT31;67751;51.986;5.696;2023-02-11T23:15:20;10.6;69.9
78455;SHT31;67751;51.986;5.696;2023-02-11T23:17:49;10.6;70.0
78455;SHT31;67751;51.986;5.696;2023-02-11T23:20:19;10.6;70.0
78455;SHT31;67751;51.986;5.696;2023-02-11T23:22:49;10.6;70.0
78455;SHT31;67751;51.986;5.696;2023-02-11T23:25:18;10.6;69.9
78455;SHT31;67751;51.986;5.696;2023-02-11T23:27:48;10.6;69.9
78455;SHT31;67751;51.986;5.696;2023-02-11T23:30:18;10.5;69.9
78455;SHT31;67751;51.986;5.696;2023-02-11T23:32:48;10.5;69.9
78455;SHT31;67751;51.986;5.696;2023-02-11T23:35:18;10.5;69.8
78455;SHT31;67751;51.986;5.696;2023-02-11T23:37:51;10.5;69.7
78455;SHT31;67751;51.986;5.696;2023-02-11T23:40:21;10.5;69.8
78455;SHT31;67751;51.986;5.696;2023-02-11T23:42:51;10.5;69.9
78455;SHT31;67751;51.986;5.696;2023-02-11T23:45:20;10.5;69.9
78455;SHT31;67751;51.986;5.696;2023-02-11T23:47:51;10.5;69.8
78455;SHT31;67751;51.986;5.696;2023-02-11T23:50:23;10.5;69.9
78455;SHT31;67751;51.986;5.696;2023-02-11T23:52:52;10.5;69.7
78455;SHT31;67751;51.986;5.696;2023-02-11T23:55:22;10.5;69.9
78455;SHT31;67751;51.986;5.696;2023-02-11T23:57:53;10.5;69.7
